sensor_id;sensor_type;location;lat;lon;timestamp;pressure;altitude;pressure_sealevel;temperature;humidity
20003;BME280;10162;41.600;23.806;2024-03-07T00:02:16;95051.38;;;7.70;100.00
20003;BME280;10162;41.600;23.806;2024-03-07T00:04:52;95034.53;;;7.66;100.00
20003;BME280;10162;41.600;23.806;2024-03-07T00:07:25;95048.44;;;7.73;100.00
20003;BME280;10162;41.600;23.806;2024-03-07T00:09:54;95044.31;;;7.78;100.00
20003;BME280;10162;41.600;23.806;2024-03-07T00:12:21;95081.09;;;8.05;100.00
20003;BME280;10162;41.600;23.806;2024-03-07T00:14:48;95075.44;;;8.01;100.00
20003;BME280;10162;41.600;23.806;2024-03-07T00:17:14;95086.22;;;7.83;100.00
20003;BME280;10162;41.600;23.806;2024-03-07T00:23:34;95069.41;;;7.57;100.00
20003;BME280;10162;41.600;23.806;2024-03-07T00:26:00;95054.16;;;7.39;100.00
20003;BME280;10162;41.600;23.806;2024-03-07T00:32:20;95043.59;;;7.18;100.00
20003;BME280;10162;41.600;23.806;2024-03-07T00:34:47;95033.72;;;7.13;100.00
20003;BME280;10162;41.600;23.806;2024-03-07T00:37:12;95024.63;;;6.94;100.00
20003;BME280;10162;41.600;23.806;2024-03-07T00:39:41;95055.41;;;7.05;100.00
20003;BME280;10162;41.600;23.806;2024-03-07T00:42:07;95057.31;;;7.12;100.00
20003;BME280;10162;41.600;23.806;2024-03-07T00:44:33;95048.19;;;6.93;100.00
20003;BME280;10162;41.600;23.806;2024-03-07T00:47:02;95021.03;;;6.95;100.00
20003;BME280;10162;41.600;23.806;2024-03-07T00:49:56;95052.16;;;7.03;100.00
20003;BME280;10162;41.600;23.806;2024-03-07T00:52:21;95045.19;;;7.04;100.00
20003;BME280;10162;41.600;23.806;2024-03-07T00:54:47;95038.31;;;7.11;100.00
20003;BME280;10162;41.600;23.806;2024-03-07T00:57:13;95037.13;;;7.14;100.00
20003;BME280;10162;41.600;23.806;2024-03-07T00:59:40;95016.53;;;6.89;100.00
20003;BME280;10162;41.600;23.806;2024-03-07T01:02:12;94986.19;;;6.44;100.00
20003;BME280;10162;41.600;23.806;2024-03-07T01:04:41;94970.09;;;6.49;100.00
20003;BME280;10162;41.600;23.806;2024-03-07T01:07:07;95019.31;;;6.88;100.00
20003;BME280;10162;41.600;23.806;2024-03-07T01:09:33;95000.03;;;6.82;100.00
20003;BME280;10162;41.600;23.806;2024-03-07T01:12:01;94971.28;;;6.61;100.00
20003;BME280;10162;41.600;23.806;2024-03-07T01:14:30;94968.69;;;6.61;100.00
20003;BME280;10162;41.600;23.806;2024-03-07T01:16:56;95005.34;;;6.89;100.00
20003;BME280;10162;41.600;23.806;2024-03-07T01:19:22;95005.69;;;6.86;100.00
20003;BME280;10162;41.600;23.806;2024-03-07T01:21:48;95013.06;;;6.97;100.00
20003;BME280;10162;41.600;23.806;2024-03-07T01:24:14;95001.34;;;6.78;100.00
20003;BME280;10162;41.600;23.806;2024-03-07T01:26:43;95025.38;;;7.03;100.00
20003;BME280;10162;41.600;23.806;2024-03-07T01:29:10;95030.22;;;7.06;100.00
20003;BME280;10162;41.600;23.806;2024-03-07T01:31:43;95015.78;;;7.03;100.00
20003;BME280;10162;41.600;23.806;2024-03-07T01:34:09;95047.41;;;7.07;100.00
20003;BME280;10162;41.600;23.806;2024-03-07T01:36:34;95023.41;;;7.05;100.00
20003;BME280;10162;41.600;23.806;2024-03-07T01:41:52;94987.63;;;6.24;100.00
20003;BME280;10162;41.600;23.806;2024-03-07T01:44:21;94991.56;;;6.43;100.00
20003;BME280;10162;41.600;23.806;2024-03-07T01:46:53;95044.81;;;6.84;100.00
20003;BME280;10162;41.600;23.806;2024-03-07T01:53:13;95003.72;;;6.88;100.00
20003;BME280;10162;41.600;23.806;2024-03-07T01:55:40;94977.03;;;6.94;100.00
20003;BME280;10162;41.600;23.806;2024-03-07T01:58:26;95025.81;;;7.44;100.00
20003;BME280;10162;41.600;23.806;2024-03-07T02:00:52;95001.59;;;7.29;100.00
20003;BME280;10162;41.600;23.806;2024-03-07T02:03:18;95014.69;;;7.50;100.00
20003;BME280;10162;41.600;23.806;2024-03-07T02:05:47;94962.81;;;7.19;100.00
20003;BME280;10162;41.600;23.806;2024-03-07T02:08:35;95021.41;;;7.59;100.00
20003;BME280;10162;41.600;23.806;2024-03-07T02:11:14;94978.19;;;7.29;100.00
20003;BME280;10162;41.600;23.806;2024-03-07T02:13:39;94983.38;;;7.29;100.00
20003;BME280;10162;41.600;23.806;2024-03-07T02:16:05;94988.91;;;7.26;100.00
20003;BME280;10162;41.600;23.806;2024-03-07T02:18:38;95014.31;;;7.38;100.00
20003;BME280;10162;41.600;23.806;2024-03-07T02:21:07;94982.75;;;7.27;100.00
20003;BME280;10162;41.600;23.806;2024-03-07T02:23:34;95020.81;;;7.57;100.00
20003;BME280;10162;41.600;23.806;2024-03-07T02:26:00;95002.56;;;7.42;100.00
20003;BME280;10162;41.600;23.806;2024-03-07T02:28:40;95012.97;;;7.42;100.00
20003;BME280;10162;41.600;23.806;2024-03-07T02:31:28;94979.69;;;7.23;100.00
20003;BME280;10162;41.600;23.806;2024-03-07T02:34:03;95004.19;;;7.43;100.00
20003;BME280;10162;41.600;23.806;2024-03-07T02:36:30;95024.72;;;7.53;100.00
20003;BME280;10162;41.600;23.806;2024-03-07T02:42:50;95018.22;;;7.57;100.00
20003;BME280;10162;41.600;23.806;2024-03-07T02:45:20;95016.56;;;7.71;100.00
20003;BME280;10162;41.600;23.806;2024-03-07T02:48:23;95032.09;;;7.79;100.00
20003;BME280;10162;41.600;23.806;2024-03-07T02:50:49;94985.34;;;7.41;100.00
20003;BME280;10162;41.600;23.806;2024-03-07T02:53:14;94980.50;;;7.38;100.00
20003;BME280;10162;41.600;23.806;2024-03-07T02:55:46;95026.38;;;7.69;100.00
20003;BME280;10162;41.600;23.806;2024-03-07T02:58:36;94980.84;;;7.35;100.00
20003;BME280;10162;41.600;23.806;2024-03-07T03:01:03;95012.16;;;7.27;100.00
20003;BME280;10162;41.600;23.806;2024-03-07T03:03:31;95016.00;;;7.31;100.00
20003;BME280;10162;41.600;23.806;2024-03-07T03:05:59;95000.69;;;7.36;100.00
20003;BME280;10162;41.600;23.806;2024-03-07T03:12:21;95018.66;;;7.09;100.00
20003;BME280;10162;41.600;23.806;2024-03-07T03:14:50;95003.06;;;7.09;100.00
20003;BME280;10162;41.600;23.806;2024-03-07T03:17:18;94997.97;;;7.15;100.00
20003;BME280;10162;41.600;23.806;2024-03-07T03:19:44;95013.50;;;7.38;100.00
20003;BME280;10162;41.600;23.806;2024-03-07T03:22:16;95008.47;;;7.36;100.00
20003;BME280;10162;41.600;23.806;2024-03-07T03:24:41;94999.25;;;7.34;100.00
20003;BME280;10162;41.600;23.806;2024-03-07T03:27:07;94983.72;;;7.26;100.00
20003;BME280;10162;41.600;23.806;2024-03-07T03:33:27;95007.06;;;7.63;100.00
20003;BME280;10162;41.600;23.806;2024-03-07T03:36:01;95015.66;;;7.64;100.00
20003;BME280;10162;41.600;23.806;2024-03-07T03:42:25;95014.50;;;7.37;100.00
20003;BME280;10162;41.600;23.806;2024-03-07T03:44:54;95024.81;;;7.45;100.00
20003;BME280;10162;41.600;23.806;2024-03-07T03:51:43;94975.75;;;7.27;100.00
20003;BME280;10162;41.600;23.806;2024-03-07T03:54:09;95002.22;;;7.45;100.00
20003;BME280;10162;41.600;23.806;2024-03-07T03:56:36;94970.75;;;7.55;100.00
20003;BME280;10162;41.600;23.806;2024-03-07T04:02:55;94982.56;;;7.72;100.00
20003;BME280;10162;41.600;23.806;2024-03-07T04:05:24;95006.78;;;7.87;100.00
20003;BME280;10162;41.600;23.806;2024-03-07T04:08:05;94977.44;;;7.64;100.00
20003;BME280;10162;41.600;23.806;2024-03-07T04:10:35;94982.91;;;7.69;100.00
20003;BME280;10162;41.600;23.806;2024-03-07T04:13:01;94975.31;;;7.68;100.00
20003;BME280;10162;41.600;23.806;2024-03-07T04:15:27;94984.66;;;7.62;100.00
20003;BME280;10162;41.600;23.806;2024-03-07T04:18:08;94995.59;;;7.72;100.00
20003;BME280;10162;41.600;23.806;2024-03-07T04:20:34;95006.06;;;7.64;100.00
20003;BME280;10162;41.600;23.806;2024-03-07T04:22:59;94960.78;;;7.59;100.00
20003;BME280;10162;41.600;23.806;2024-03-07T04:25:25;94974.25;;;7.62;100.00
20003;BME280;10162;41.600;23.806;2024-03-07T04:31:54;94959.91;;;7.52;100.00
20003;BME280;10162;41.600;23.806;2024-03-07T04:34:23;94978.91;;;7.67;100.00
20003;BME280;10162;41.600;23.806;2024-03-07T04:36:49;94976.22;;;7.60;100.00
20003;BME280;10162;41.600;23.806;2024-03-07T04:43:19;94989.56;;;7.42;100.00
20003;BME280;10162;41.600;23.806;2024-03-07T04:45:55;94966.34;;;7.41;100.00
20003;BME280;10162;41.600;23.806;2024-03-07T04:52:44;95013.69;;;7.36;100.00
20003;BME280;10162;41.600;23.806;2024-03-07T04:55:14;94982.91;;;7.25;100.00
20003;BME280;10162;41.600;23.806;2024-03-07T04:57:45;94999.25;;;7.34;100.00
20003;BME280;10162;41.600;23.806;2024-03-07T05:00:11;94994.75;;;7.28;100.00
20003;BME280;10162;41.600;23.806;2024-03-07T05:02:43;95007.22;;;7.32;100.00
20003;BME280;10162;41.600;23.806;2024-03-07T05:05:12;95014.66;;;7.35;100.00
20003;BME280;10162;41.600;23.806;2024-03-07T05:08:12;95037.19;;;7.58;100.00
20003;BME280;10162;41.600;23.806;2024-03-07T05:10:38;95012.91;;;7.51;100.00
20003;BME280;10162;41.600;23.806;2024-03-07T05:13:04;94985.53;;;7.55;100.00
20003;BME280;10162;41.600;23.806;2024-03-07T05:15:33;94997.19;;;7.59;100.00
20003;BME280;10162;41.600;23.806;2024-03-07T05:21:52;95007.34;;;7.39;100.00
20003;BME280;10162;41.600;23.806;2024-03-07T05:24:18;95021.84;;;7.48;100.00
20003;BME280;10162;41.600;23.806;2024-03-07T05:26:52;95008.13;;;7.39;100.00
20003;BME280;10162;41.600;23.806;2024-03-07T05:29:37;95001.84;;;7.48;100.00
20003;BME280;10162;41.600;23.806;2024-03-07T05:32:22;94992.78;;;7.59;100.00
20003;BME280;10162;41.600;23.806;2024-03-07T05:34:48;95029.41;;;8.02;100.00
20003;BME280;10162;41.600;23.806;2024-03-07T05:37:14;95041.97;;;8.13;100.00
20003;BME280;10162;41.600;23.806;2024-03-07T05:43:34;95016.81;;;8.20;100.00
20003;BME280;10162;41.600;23.806;2024-03-07T05:46:03;95015.72;;;8.29;100.00
20003;BME280;10162;41.600;23.806;2024-03-07T05:48:31;95019.03;;;8.38;100.00
20003;BME280;10162;41.600;23.806;2024-03-07T05:50:57;95021.72;;;8.44;100.00
20003;BME280;10162;41.600;23.806;2024-03-07T05:53:23;95000.44;;;8.41;100.00
20003;BME280;10162;41.600;23.806;2024-03-07T05:55:49;94994.91;;;8.50;100.00
20003;BME280;10162;41.600;23.806;2024-03-07T05:58:15;94983.03;;;8.41;100.00
20003;BME280;10162;41.600;23.806;2024-03-07T06:00:48;95021.53;;;8.67;100.00
20003;BME280;10162;41.600;23.806;2024-03-07T06:03:17;95030.88;;;8.76;100.00
20003;BME280;10162;41.600;23.806;2024-03-07T06:05:46;95016.53;;;8.65;100.00
20003;BME280;10162;41.600;23.806;2024-03-07T06:08:15;95042.59;;;8.87;100.00
20003;BME280;10162;41.600;23.806;2024-03-07T06:10:44;95040.44;;;8.90;100.00
20003;BME280;10162;41.600;23.806;2024-03-07T06:13:15;95018.97;;;8.88;100.00
20003;BME280;10162;41.600;23.806;2024-03-07T06:15:46;95045.13;;;9.01;100.00
20003;BME280;10162;41.600;23.806;2024-03-07T06:18:12;95031.53;;;8.63;100.00
20003;BME280;10162;41.600;23.806;2024-03-07T06:20:44;95049.00;;;8.84;100.00
20003;BME280;10162;41.600;23.806;2024-03-07T06:23:10;95034.22;;;8.70;100.00
20003;BME280;10162;41.600;23.806;2024-03-07T06:25:41;95024.97;;;8.67;100.00
20003;BME280;10162;41.600;23.806;2024-03-07T06:28:17;95043.41;;;8.87;100.00
20003;BME280;10162;41.600;23.806;2024-03-07T06:30:44;95026.25;;;9.21;100.00
20003;BME280;10162;41.600;23.806;2024-03-07T06:33:13;95037.06;;;9.18;100.00
20003;BME280;10162;41.600;23.806;2024-03-07T06:35:40;95015.88;;;9.06;100.00
20003;BME280;10162;41.600;23.806;2024-03-07T06:42:00;95038.63;;;9.40;100.00
20003;BME280;10162;41.600;23.806;2024-03-07T06:44:26;95047.84;;;9.36;100.00
20003;BME280;10162;41.600;23.806;2024-03-07T06:46:52;95036.44;;;8.94;100.00
20003;BME280;10162;41.600;23.806;2024-03-07T06:49:18;95038.56;;;9.27;100.00
20003;BME280;10162;41.600;23.806;2024-03-07T06:51:44;95036.13;;;9.53;100.00
20003;BME280;10162;41.600;23.806;2024-03-07T06:54:10;95010.09;;;9.32;100.00
20003;BME280;10162;41.600;23.806;2024-03-07T06:56:36;95016.34;;;9.65;100.00
20003;BME280;10162;41.600;23.806;2024-03-07T07:02:56;95036.81;;;10.03;100.00
20003;BME280;10162;41.600;23.806;2024-03-07T07:05:23;95026.69;;;9.52;100.00
20003;BME280;10162;41.600;23.806;2024-03-07T07:11:42;95059.91;;;9.37;100.00
20003;BME280;10162;41.600;23.806;2024-03-07T07:14:11;95044.47;;;9.14;100.00
20003;BME280;10162;41.600;23.806;2024-03-07T07:16:37;95047.06;;;9.14;100.00
20003;BME280;10162;41.600;23.806;2024-03-07T07:23:00;95052.91;;;9.16;100.00
20003;BME280;10162;41.600;23.806;2024-03-07T07:25:29;95058.13;;;9.16;100.00
20003;BME280;10162;41.600;23.806;2024-03-07T07:28:06;95061.66;;;8.87;100.00
20003;BME280;10162;41.600;23.806;2024-03-07T07:30:36;95035.38;;;8.67;100.00
20003;BME280;10162;41.600;23.806;2024-03-07T07:33:02;95070.78;;;8.98;100.00
20003;BME280;10162;41.600;23.806;2024-03-07T07:35:28;95066.56;;;8.76;100.00
20003;BME280;10162;41.600;23.806;2024-03-07T07:41:48;95066.88;;;8.51;100.00
20003;BME280;10162;41.600;23.806;2024-03-07T07:44:15;95061.34;;;8.40;100.00
20003;BME280;10162;41.600;23.806;2024-03-07T07:46:41;95058.81;;;8.32;100.00
20003;BME280;10162;41.600;23.806;2024-03-07T07:49:14;95069.88;;;8.48;100.00
20003;BME280;10162;41.600;23.806;2024-03-07T07:51:41;95074.53;;;8.38;100.00
20003;BME280;10162;41.600;23.806;2024-03-07T07:54:07;95071.66;;;8.48;100.00
20003;BME280;10162;41.600;23.806;2024-03-07T07:56:35;95068.03;;;8.49;100.00
20003;BME280;10162;41.600;23.806;2024-03-07T07:59:24;95109.47;;;8.58;100.00
20003;BME280;10162;41.600;23.806;2024-03-07T08:01:53;95112.81;;;8.52;100.00
20003;BME280;10162;41.600;23.806;2024-03-07T08:04:21;95122.41;;;8.52;100.00
20003;BME280;10162;41.600;23.806;2024-03-07T08:06:47;95114.41;;;8.24;100.00
20003;BME280;10162;41.600;23.806;2024-03-07T08:13:10;95155.41;;;7.93;100.00
20003;BME280;10162;41.600;23.806;2024-03-07T08:15:39;95161.47;;;8.22;100.00
20003;BME280;10162;41.600;23.806;2024-03-07T08:21:32;95130.06;;;7.57;100.00
20003;BME280;10162;41.600;23.806;2024-03-07T08:24:01;95165.06;;;7.69;100.00
20003;BME280;10162;41.600;23.806;2024-03-07T08:26:36;95149.81;;;7.29;100.00
20003;BME280;10162;41.600;23.806;2024-03-07T08:29:16;95225.44;;;7.42;100.00
20003;BME280;10162;41.600;23.806;2024-03-07T08:31:43;95225.38;;;7.50;100.00
20003;BME280;10162;41.600;23.806;2024-03-07T08:34:09;95222.69;;;7.13;100.00
20003;BME280;10162;41.600;23.806;2024-03-07T08:36:35;95220.78;;;7.29;100.00
20003;BME280;10162;41.600;23.806;2024-03-07T08:42:36;95228.75;;;6.66;100.00
20003;BME280;10162;41.600;23.806;2024-03-07T08:45:34;95233.69;;;6.84;100.00
20003;BME280;10162;41.600;23.806;2024-03-07T08:49:09;95252.03;;;6.90;100.00
20003;BME280;10162;41.600;23.806;2024-03-07T08:55:33;95152.03;;;5.84;100.00
20003;BME280;10162;41.600;23.806;2024-03-07T09:09:48;95103.91;;;5.90;100.00
20003;BME280;10162;41.600;23.806;2024-03-07T09:16:05;95145.38;;;6.45;100.00
20003;BME280;10162;41.600;23.806;2024-03-07T09:18:47;95093.66;;;6.43;100.00
20003;BME280;10162;41.600;23.806;2024-03-07T09:21:24;95108.09;;;6.99;100.00
20003;BME280;10162;41.600;23.806;2024-03-07T09:23:51;95127.50;;;6.89;100.00
20003;BME280;10162;41.600;23.806;2024-03-07T09:26:18;95095.97;;;6.61;100.00
20003;BME280;10162;41.600;23.806;2024-03-07T09:28:44;95140.78;;;7.17;100.00
20003;BME280;10162;41.600;23.806;2024-03-07T09:31:10;95125.88;;;7.33;100.00
20003;BME280;10162;41.600;23.806;2024-03-07T09:33:39;95131.94;;;7.63;100.00
20003;BME280;10162;41.600;23.806;2024-03-07T09:36:05;95123.63;;;7.82;100.00
20003;BME280;10162;41.600;23.806;2024-03-07T09:38:32;95093.31;;;8.04;100.00
20003;BME280;10162;41.600;23.806;2024-03-07T09:40:58;95096.97;;;8.10;100.00
20003;BME280;10162;41.600;23.806;2024-03-07T09:43:26;95123.94;;;8.32;100.00
20003;BME280;10162;41.600;23.806;2024-03-07T09:45:55;95123.38;;;7.92;100.00
20003;BME280;10162;41.600;23.806;2024-03-07T09:48:21;95156.84;;;8.47;100.00
20003;BME280;10162;41.600;23.806;2024-03-07T09:50:52;95141.25;;;8.68;100.00
20003;BME280;10162;41.600;23.806;2024-03-07T09:53:20;95122.97;;;8.83;100.00
20003;BME280;10162;41.600;23.806;2024-03-07T09:55:47;95167.78;;;9.08;100.00
20003;BME280;10162;41.600;23.806;2024-03-07T09:58:16;95177.66;;;9.12;100.00
20003;BME280;10162;41.600;23.806;2024-03-07T10:00:45;95163.03;;;8.97;100.00
20003;BME280;10162;41.600;23.806;2024-03-07T10:03:13;95166.03;;;8.94;100.00
20003;BME280;10162;41.600;23.806;2024-03-07T10:05:39;95169.09;;;9.19;100.00
20003;BME280;10162;41.600;23.806;2024-03-07T10:08:06;95176.63;;;9.49;100.00
20003;BME280;10162;41.600;23.806;2024-03-07T10:10:32;95156.31;;;9.45;100.00
20003;BME280;10162;41.600;23.806;2024-03-07T10:12:59;95135.47;;;9.51;100.00
20003;BME280;10162;41.600;23.806;2024-03-07T10:15:29;95126.47;;;9.11;100.00
20003;BME280;10162;41.600;23.806;2024-03-07T10:17:55;95136.81;;;10.18;100.00
20003;BME280;10162;41.600;23.806;2024-03-07T10:20:20;95146.19;;;10.40;100.00
20003;BME280;10162;41.600;23.806;2024-03-07T10:22:48;95168.59;;;10.97;100.00
20003;BME280;10162;41.600;23.806;2024-03-07T10:25:18;95166.06;;;11.36;100.00
20003;BME280;10162;41.600;23.806;2024-03-07T10:27:46;95166.81;;;9.73;100.00
20003;BME280;10162;41.600;23.806;2024-03-07T10:30:14;95131.25;;;10.27;100.00
20003;BME280;10162;41.600;23.806;2024-03-07T10:32:47;95138.69;;;9.75;100.00
20003;BME280;10162;41.600;23.806;2024-03-07T10:35:13;95128.69;;;10.88;100.00
20003;BME280;10162;41.600;23.806;2024-03-07T10:37:40;95158.84;;;9.60;100.00
20003;BME280;10162;41.600;23.806;2024-03-07T10:40:07;95135.75;;;9.57;100.00
20003;BME280;10162;41.600;23.806;2024-03-07T10:42:45;95133.31;;;10.11;100.00
20003;BME280;10162;41.600;23.806;2024-03-07T10:45:18;95114.94;;;8.99;100.00
20003;BME280;10162;41.600;23.806;2024-03-07T10:47:52;95098.66;;;8.61;100.00
20003;BME280;10162;41.600;23.806;2024-03-07T10:53:32;95135.53;;;10.35;100.00
20003;BME280;10162;41.600;23.806;2024-03-07T10:56:14;95131.66;;;10.03;100.00
20003;BME280;10162;41.600;23.806;2024-03-07T11:04:22;95084.09;;;11.03;100.00
20003;BME280;10162;41.600;23.806;2024-03-07T11:06:48;95103.66;;;11.20;100.00
20003;BME280;10162;41.600;23.806;2024-03-07T11:09:15;95085.72;;;11.30;100.00
20003;BME280;10162;41.600;23.806;2024-03-07T11:11:48;95088.56;;;12.01;100.00
20003;BME280;10162;41.600;23.806;2024-03-07T11:14:14;95098.88;;;12.60;100.00
20003;BME280;10162;41.600;23.806;2024-03-07T11:16:42;95094.84;;;11.80;100.00
20003;BME280;10162;41.600;23.806;2024-03-07T11:19:28;95095.63;;;12.65;100.00
20003;BME280;10162;41.600;23.806;2024-03-07T11:21:57;95078.91;;;11.49;96.14
20003;BME280;10162;41.600;23.806;2024-03-07T11:24:30;95069.03;;;11.51;100.00
20003;BME280;10162;41.600;23.806;2024-03-07T11:26:58;95068.81;;;11.46;97.84
20003;BME280;10162;41.600;23.806;2024-03-07T11:29:47;95061.19;;;11.77;95.39
20003;BME280;10162;41.600;23.806;2024-03-07T11:32:19;95033.38;;;11.89;96.80
20003;BME280;10162;41.600;23.806;2024-03-07T11:34:47;95021.63;;;12.12;97.35
20003;BME280;10162;41.600;23.806;2024-03-07T11:37:19;95058.44;;;12.36;96.92
20003;BME280;10162;41.600;23.806;2024-03-07T11:39:49;95035.72;;;12.17;90.38
20003;BME280;10162;41.600;23.806;2024-03-07T11:42:27;95033.19;;;12.42;94.27
20003;BME280;10162;41.600;23.806;2024-03-07T11:44:59;95031.34;;;12.49;95.65
20003;BME280;10162;41.600;23.806;2024-03-07T11:47:26;95013.78;;;12.12;98.54
20003;BME280;10162;41.600;23.806;2024-03-07T11:49:55;95029.56;;;12.43;98.56
20003;BME280;10162;41.600;23.806;2024-03-07T11:52:24;95035.03;;;12.41;97.17
20003;BME280;10162;41.600;23.806;2024-03-07T11:54:49;94969.38;;;12.23;91.47
20003;BME280;10162;41.600;23.806;2024-03-07T11:57:17;95017.84;;;12.90;93.00
20003;BME280;10162;41.600;23.806;2024-03-07T11:59:45;94996.59;;;12.60;88.70
20003;BME280;10162;41.600;23.806;2024-03-07T12:02:13;95024.81;;;12.65;91.43
20003;BME280;10162;41.600;23.806;2024-03-07T12:04:43;95020.16;;;12.73;89.43
20003;BME280;10162;41.600;23.806;2024-03-07T12:07:09;95026.56;;;12.77;94.20
20003;BME280;10162;41.600;23.806;2024-03-07T12:09:39;95016.72;;;12.73;87.17
20003;BME280;10162;41.600;23.806;2024-03-07T12:12:06;95018.97;;;13.01;89.35
20003;BME280;10162;41.600;23.806;2024-03-07T12:14:32;95013.69;;;13.14;88.94
20003;BME280;10162;41.600;23.806;2024-03-07T12:17:00;95005.81;;;13.14;85.81
20003;BME280;10162;41.600;23.806;2024-03-07T12:19:26;95009.97;;;12.52;88.18
20003;BME280;10162;41.600;23.806;2024-03-07T12:21:56;95004.91;;;12.57;85.99
20003;BME280;10162;41.600;23.806;2024-03-07T12:24:23;95006.88;;;12.24;87.31
20003;BME280;10162;41.600;23.806;2024-03-07T12:26:49;95014.13;;;12.28;86.35
20003;BME280;10162;41.600;23.806;2024-03-07T12:29:14;95014.38;;;12.58;82.79
20003;BME280;10162;41.600;23.806;2024-03-07T12:31:43;94997.56;;;12.34;86.15
20003;BME280;10162;41.600;23.806;2024-03-07T12:34:09;94992.75;;;12.69;88.02
20003;BME280;10162;41.600;23.806;2024-03-07T12:36:35;94952.63;;;11.73;85.58
20003;BME280;10162;41.600;23.806;2024-03-07T12:39:24;95014.25;;;11.82;88.04
20003;BME280;10162;41.600;23.806;2024-03-07T12:41:51;95002.50;;;11.98;86.79
20003;BME280;10162;41.600;23.806;2024-03-07T12:44:21;94999.94;;;11.65;89.33
20003;BME280;10162;41.600;23.806;2024-03-07T12:46:56;95006.19;;;11.77;88.46
20003;BME280;10162;41.600;23.806;2024-03-07T12:49:23;95007.94;;;11.96;87.82
20003;BME280;10162;41.600;23.806;2024-03-07T12:51:58;95002.38;;;11.67;87.21
20003;BME280;10162;41.600;23.806;2024-03-07T12:54:24;95001.53;;;11.92;85.48
20003;BME280;10162;41.600;23.806;2024-03-07T12:56:50;94972.78;;;11.46;85.99
20003;BME280;10162;41.600;23.806;2024-03-07T12:59:16;94977.00;;;11.47;89.95
20003;BME280;10162;41.600;23.806;2024-03-07T13:01:42;95002.78;;;11.77;84.75
20003;BME280;10162;41.600;23.806;2024-03-07T13:04:11;94965.69;;;11.80;85.52
20003;BME280;10162;41.600;23.806;2024-03-07T13:06:36;94927.47;;;11.39;89.75
20003;BME280;10162;41.600;23.806;2024-03-07T13:09:03;94943.91;;;11.79;87.96
20003;BME280;10162;41.600;23.806;2024-03-07T13:11:29;94936.44;;;11.96;88.44
20003;BME280;10162;41.600;23.806;2024-03-07T13:13:58;94948.56;;;13.22;79.03
20003;BME280;10162;41.600;23.806;2024-03-07T13:16:23;94941.28;;;13.68;75.10
20003;BME280;10162;41.600;23.806;2024-03-07T13:18:53;94948.75;;;13.89;72.29
20003;BME280;10162;41.600;23.806;2024-03-07T13:21:19;94946.09;;;14.07;70.78
20003;BME280;10162;41.600;23.806;2024-03-07T13:23:46;94939.69;;;13.85;69.83
20003;BME280;10162;41.600;23.806;2024-03-07T13:26:12;94929.72;;;13.50;71.96
20003;BME280;10162;41.600;23.806;2024-03-07T13:28:45;94944.78;;;13.61;70.37
20003;BME280;10162;41.600;23.806;2024-03-07T13:31:11;94912.94;;;13.33;71.42
20003;BME280;10162;41.600;23.806;2024-03-07T13:33:43;94939.22;;;13.02;74.21
20003;BME280;10162;41.600;23.806;2024-03-07T13:36:09;94946.59;;;13.18;73.80
20003;BME280;10162;41.600;23.806;2024-03-07T13:38:35;94918.78;;;13.35;72.23
20003;BME280;10162;41.600;23.806;2024-03-07T13:41:02;94938.97;;;13.35;74.50
20003;BME280;10162;41.600;23.806;2024-03-07T13:43:31;94959.94;;;13.16;73.17
20003;BME280;10162;41.600;23.806;2024-03-07T13:45:59;94933.78;;;12.72;77.56
20003;BME280;10162;41.600;23.806;2024-03-07T13:48:25;94944.91;;;12.36;80.73
20003;BME280;10162;41.600;23.806;2024-03-07T13:50:51;94962.00;;;12.76;81.89
20003;BME280;10162;41.600;23.806;2024-03-07T13:53:20;94912.34;;;12.19;81.20
20003;BME280;10162;41.600;23.806;2024-03-07T13:56:50;94939.88;;;12.66;78.37
20003;BME280;10162;41.600;23.806;2024-03-07T13:59:24;94932.41;;;12.69;78.54
20003;BME280;10162;41.600;23.806;2024-03-07T14:02:29;94950.03;;;13.18;74.22
20003;BME280;10162;41.600;23.806;2024-03-07T14:30:52;94921.66;;;13.52;64.04
20003;BME280;10162;41.600;23.806;2024-03-07T14:33:27;94932.59;;;13.85;66.81
20003;BME280;10162;41.600;23.806;2024-03-07T14:36:02;94920.41;;;13.91;65.24
20003;BME280;10162;41.600;23.806;2024-03-07T14:38:46;94937.97;;;13.36;66.43
20003;BME280;10162;41.600;23.806;2024-03-07T14:41:15;94914.34;;;13.54;67.62
20003;BME280;10162;41.600;23.806;2024-03-07T14:43:42;94926.81;;;13.40;66.25
20003;BME280;10162;41.600;23.806;2024-03-07T14:46:09;94945.63;;;13.37;67.76
20003;BME280;10162;41.600;23.806;2024-03-07T14:48:35;94926.66;;;13.35;69.89
20003;BME280;10162;41.600;23.806;2024-03-07T14:51:01;94911.81;;;13.22;70.09
20003;BME280;10162;41.600;23.806;2024-03-07T14:53:28;94905.13;;;12.08;79.91
20003;BME280;10162;41.600;23.806;2024-03-07T14:55:54;94928.50;;;11.38;83.83
20003;BME280;10162;41.600;23.806;2024-03-07T14:58:21;94928.06;;;11.54;83.91
20003;BME280;10162;41.600;23.806;2024-03-07T15:00:50;94916.25;;;11.26;84.80
20003;BME280;10162;41.600;23.806;2024-03-07T15:03:18;94915.47;;;10.99;85.46
20003;BME280;10162;41.600;23.806;2024-03-07T15:05:45;94905.41;;;10.89;86.71
20003;BME280;10162;41.600;23.806;2024-03-07T15:08:13;94915.66;;;10.84;85.06
20003;BME280;10162;41.600;23.806;2024-03-07T15:10:45;94910.63;;;10.63;87.92
20003;BME280;10162;41.600;23.806;2024-03-07T15:13:13;94904.78;;;10.54;89.08
20003;BME280;10162;41.600;23.806;2024-03-07T15:15:39;94914.63;;;10.46;89.44
20003;BME280;10162;41.600;23.806;2024-03-07T15:21:20;94931.53;;;10.56;89.35
20003;BME280;10162;41.600;23.806;2024-03-07T15:23:46;94924.50;;;10.57;90.54
20003;BME280;10162;41.600;23.806;2024-03-07T15:26:13;94927.31;;;11.28;88.33
20003;BME280;10162;41.600;23.806;2024-03-07T15:29:03;94945.03;;;10.93;89.62
20003;BME280;10162;41.600;23.806;2024-03-07T15:31:30;94891.72;;;10.61;90.33